createdAt,value
2023-03-02T00:00:53.151Z,1008.6
2023-03-02T00:03:22.096Z,1008.6
2023-03-02T00:05:50.158Z,1008.5
2023-03-02T00:07:04.617Z,1008.5
2023-03-02T00:08:19.083Z,1008.5
2023-03-02T00:10:48.033Z,1008.5
2023-03-02T00:12:02.501Z,1008.4
2023-03-02T00:13:16.958Z,1008.4
2023-03-02T00:15:45.901Z,1008.4
2023-03-02T00:17:00.376Z,1008.4
2023-03-02T00:18:14.835Z,1008.4
2023-03-02T00:20:43.774Z,1008.4
2023-03-02T00:21:58.244Z,1008.3
2023-03-02T00:23:11.828Z,1008.3
2023-03-02T00:25:40.769Z,1008.3
2023-03-02T00:26:55.245Z,1008.3
2023-03-02T00:28:09.711Z,1008.3
2023-03-02T00:30:38.642Z,1008.3
2023-03-02T00:31:53.117Z,1008.3
2023-03-02T00:33:07.586Z,1008.3
2023-03-02T00:34:22.053Z,1008.3
2023-03-02T00:35:36.513Z,1008.3
2023-03-02T00:36:50.998Z,1008.3
2023-03-02T00:38:05.467Z,1008.3
2023-03-02T00:40:33.511Z,1008.3
2023-03-02T00:41:47.988Z,1008.3
2023-03-02T00:43:02.456Z,1008.3
2023-03-02T00:45:31.369Z,1008.3
2023-03-02T00:46:45.866Z,1008.3
2023-03-02T00:48:00.334Z,1008.3
2023-03-02T00:49:14.795Z,1008.3
2023-03-02T00:50:29.253Z,1008.2
2023-03-02T00:51:43.739Z,1008.2
2023-03-02T00:52:58.208Z,1008.2
2023-03-02T00:54:12.679Z,1008.2
2023-03-02T00:56:41.743Z,1008.2
2023-03-02T00:57:56.195Z,1008.2
2023-03-02T00:59:10.666Z,1008.2
2023-03-02T01:00:25.130Z,1008.1
2023-03-02T01:02:53.204Z,1008.1
2023-03-02T01:05:22.109Z,1008.1
2023-03-02T01:06:35.721Z,1008.1
2023-03-02T01:07:50.199Z,1008
2023-03-02T01:10:19.127Z,1008
2023-03-02T01:11:33.596Z,1008
2023-03-02T01:12:48.077Z,1008
2023-03-02T01:15:17.017Z,1008
2023-03-02T01:16:31.480Z,1007.9
2023-03-02T01:17:45.951Z,1007.9
2023-03-02T01:19:00.413Z,1007.9
2023-03-02T01:20:14.877Z,1007.9
2023-03-02T01:21:29.358Z,1007.9
2023-03-02T01:22:42.934Z,1007.9
2023-03-02T01:25:11.873Z,1007.9
2023-03-02T01:26:26.359Z,1007.9
2023-03-02T01:27:40.820Z,1007.9
2023-03-02T01:28:55.284Z,1007.9
2023-03-02T01:30:09.750Z,1007.9
2023-03-02T01:31:24.233Z,1007.9
2023-03-02T01:32:38.698Z,1007.9
2023-03-02T01:33:53.163Z,1007.9
2023-03-02T01:35:07.620Z,1007.8
2023-03-02T01:36:22.088Z,1007.8
2023-03-02T01:37:36.573Z,1007.8
2023-03-02T01:38:50.163Z,1007.8
2023-03-02T01:40:04.618Z,1007.8
2023-03-02T01:41:18.230Z,1007.8
2023-03-02T01:42:31.825Z,1007.8
2023-03-02T01:43:46.295Z,1007.7
2023-03-02T01:45:00.765Z,1007.7
2023-03-02T01:46:15.224Z,1007.7
2023-03-02T01:47:29.690Z,1007.7
2023-03-02T01:48:44.172Z,1007.7
2023-03-02T01:51:13.116Z,1007.7
2023-03-02T01:52:27.571Z,1007.7
2023-03-02T01:54:56.506Z,1007.7
2023-03-02T01:56:10.988Z,1007.7
2023-03-02T01:57:25.447Z,1007.7
2023-03-02T01:58:39.928Z,1007.7
2023-03-02T01:59:53.524Z,1007.7
2023-03-02T02:01:07.128Z,1007.7
2023-03-02T02:02:21.578Z,1007.7
2023-03-02T02:03:36.048Z,1007.7
2023-03-02T02:04:50.530Z,1007.7
2023-03-02T02:06:04.988Z,1007.7
2023-03-02T02:07:19.453Z,1007.7
2023-03-02T02:09:48.397Z,1007.7
2023-03-02T02:11:02.878Z,1007.7
2023-03-02T02:12:17.344Z,1007.7
2023-03-02T02:13:31.800Z,1007.7
2023-03-02T02:14:46.277Z,1007.7
2023-03-02T02:16:00.749Z,1007.7
2023-03-02T02:17:14.334Z,1007.7
2023-03-02T02:19:43.274Z,1007.7
2023-03-02T02:20:57.709Z,1007.7
2023-03-02T02:22:12.200Z,1007.6
2023-03-02T02:24:41.140Z,1007.6
2023-03-02T02:25:55.606Z,1007.6
2023-03-02T02:27:10.082Z,1007.5
2023-03-02T02:29:39.023Z,1007.5
2023-03-02T02:30:53.496Z,1007.5
2023-03-02T02:32:07.959Z,1007.5
2023-03-02T02:34:36.010Z,1007.5
2023-03-02T02:37:04.965Z,1007.5
2023-03-02T02:38:19.431Z,1007.5
2023-03-02T02:39:33.871Z,1007.5
2023-03-02T02:40:48.363Z,1007.5
2023-03-02T02:42:02.829Z,1007.5
2023-03-02T02:43:17.290Z,1007.5
2023-03-02T02:44:31.771Z,1007.5
2023-03-02T02:45:46.216Z,1007.5
2023-03-02T02:47:00.698Z,1007.5
2023-03-02T02:49:29.647Z,1007.5
2023-03-02T02:50:43.227Z,1007.5
2023-03-02T02:51:57.689Z,1007.5
2023-03-02T02:54:26.629Z,1007.5
2023-03-02T02:55:41.086Z,1007.5
2023-03-02T02:56:55.585Z,1007.5
2023-03-02T02:58:10.042Z,1007.5
2023-03-02T02:59:24.513Z,1007.5
2023-03-02T03:00:38.975Z,1007.4
2023-03-02T03:01:53.439Z,1007.4
2023-03-02T03:04:22.387Z,1007.4
2023-03-02T03:05:36.864Z,1007.4
2023-03-02T03:06:50.445Z,1007.4
2023-03-02T03:09:19.379Z,1007.4
2023-03-02T03:10:33.843Z,1007.4
2023-03-02T03:11:48.314Z,1007.4
2023-03-02T03:14:17.257Z,1007.4
2023-03-02T03:15:31.716Z,1007.4
2023-03-02T03:16:46.198Z,1007.4
2023-03-02T03:18:00.673Z,1007.4
2023-03-02T03:19:15.133Z,1007.4
2023-03-02T03:20:29.593Z,1007.4
2023-03-02T03:21:44.077Z,1007.4
2023-03-02T03:24:12.132Z,1007.4
2023-03-02T03:26:41.059Z,1007.4
2023-03-02T03:27:55.529Z,1007.4
2023-03-02T03:29:10.007Z,1007.4
2023-03-02T03:30:24.445Z,1007.4
2023-03-02T03:31:38.944Z,1007.4
2023-03-02T03:34:07.869Z,1007.3
2023-03-02T03:35:22.351Z,1007.3
2023-03-02T03:36:36.816Z,1007.3
2023-03-02T03:37:51.280Z,1007.3
2023-03-02T03:39:04.868Z,1007.3
2023-03-02T03:40:19.339Z,1007.3
2023-03-02T03:41:33.807Z,1007.2
2023-03-02T03:44:02.750Z,1007.2
2023-03-02T03:45:17.211Z,1007.2
2023-03-02T03:46:31.677Z,1007.2
2023-03-02T03:49:00.625Z,1007.2
2023-03-02T03:50:15.087Z,1007.2
2023-03-02T03:51:29.570Z,1007.2
2023-03-02T03:52:44.029Z,1007.2
2023-03-02T03:53:58.496Z,1007.2
2023-03-02T03:55:12.091Z,1007.2
2023-03-02T03:56:26.561Z,1007.2
2023-03-02T03:58:55.488Z,1007.2
2023-03-02T04:00:09.962Z,1007.2
2023-03-02T04:01:24.427Z,1007.2
2023-03-02T04:03:53.373Z,1007.2
2023-03-02T04:05:07.841Z,1007.2
2023-03-02T04:06:22.310Z,1007.2
2023-03-02T04:07:36.775Z,1007.1
2023-03-02T04:08:51.245Z,1007.1
2023-03-02T04:10:05.686Z,1007.1
2023-03-02T04:11:19.299Z,1007.1
2023-03-02T04:13:48.233Z,1007.1
2023-03-02T04:15:02.716Z,1007.1
2023-03-02T04:16:17.176Z,1007.1
2023-03-02T04:17:31.638Z,1007.1
2023-03-02T04:18:46.119Z,1007.1
2023-03-02T04:20:00.588Z,1007.1
2023-03-02T04:21:15.053Z,1007.1
2023-03-02T04:22:29.525Z,1007
2023-03-02T04:23:43.984Z,1007.1
2023-03-02T04:24:58.449Z,1007.1
2023-03-02T04:26:12.920Z,1007.1
2023-03-02T04:27:26.521Z,1007.1
2023-03-02T04:28:40.982Z,1007.1
2023-03-02T04:29:54.596Z,1007.1
2023-03-02T04:31:08.180Z,1007.1
2023-03-02T04:32:22.654Z,1007.1
2023-03-02T04:33:37.119Z,1007.1
2023-03-02T04:34:51.590Z,1007.1
2023-03-02T04:36:06.071Z,1007.1
2023-03-02T04:38:35.000Z,1007.1
2023-03-02T04:39:49.471Z,1007.1
2023-03-02T04:41:03.945Z,1007.1
2023-03-02T04:42:18.397Z,1007.1
2023-03-02T04:43:32.879Z,1007.1
2023-03-02T04:44:47.314Z,1007.1
2023-03-02T04:46:01.807Z,1007.1
2023-03-02T04:48:29.848Z,1007.1
2023-03-02T04:49:43.472Z,1007.1
2023-03-02T04:50:57.960Z,1007.1
2023-03-02T04:52:11.537Z,1007.1
2023-03-02T04:53:26.013Z,1007.1
2023-03-02T04:54:40.477Z,1007.2
2023-03-02T04:55:54.950Z,1007.2
2023-03-02T04:57:09.424Z,1007.2
2023-03-02T04:58:23.885Z,1007.2
2023-03-02T04:59:38.357Z,1007.2
2023-03-02T05:00:52.816Z,1007.2
2023-03-02T05:03:21.755Z,1007.1
2023-03-02T05:04:36.236Z,1007.1
2023-03-02T05:05:50.698Z,1007.1
2023-03-02T05:07:05.171Z,1007.1
2023-03-02T05:08:18.745Z,1007.1
2023-03-02T05:09:33.197Z,1007.1
2023-03-02T05:10:47.691Z,1007.1
2023-03-02T05:13:16.574Z,1007.1
2023-03-02T05:14:31.011Z,1007.1
2023-03-02T05:15:45.415Z,1007.1
2023-03-02T05:18:13.482Z,1007.1
2023-03-02T05:19:27.934Z,1007.1
2023-03-02T05:20:41.419Z,1007.1
2023-03-02T05:21:54.814Z,1007.1
2023-03-02T05:23:09.130Z,1007.1
2023-03-02T05:24:23.424Z,1007.1
2023-03-02T05:25:37.736Z,1007.1
2023-03-02T05:26:52.033Z,1007.1
2023-03-02T05:28:06.327Z,1007.1
2023-03-02T05:29:20.630Z,1007.1
2023-03-02T05:30:34.925Z,1007.2
2023-03-02T05:31:49.227Z,1007.2
2023-03-02T05:33:03.532Z,1007.2
2023-03-02T05:35:32.130Z,1007.2
2023-03-02T05:36:46.449Z,1007.2
2023-03-02T05:37:59.786Z,1007.1
2023-03-02T05:39:14.096Z,1007.1
2023-03-02T05:40:28.390Z,1007.1
2023-03-02T05:41:42.689Z,1007.1
2023-03-02T05:42:57.006Z,1007.1
2023-03-02T05:44:11.298Z,1007.1
2023-03-02T05:45:25.598Z,1007.1
2023-03-02T05:46:39.911Z,1007.1
2023-03-02T05:49:07.569Z,1007.1
2023-03-02T05:50:21.874Z,1007.1
2023-03-02T05:51:36.181Z,1007.2
2023-03-02T05:52:49.519Z,1007.2
2023-03-02T05:54:03.830Z,1007.2
2023-03-02T05:55:18.133Z,1007.2
2023-03-02T05:56:32.432Z,1007.2
2023-03-02T05:57:46.724Z,1007.2
2023-03-02T05:59:01.034Z,1007.2
2023-03-02T06:00:15.332Z,1007.2
2023-03-02T06:01:28.709Z,1007.2
2023-03-02T06:02:42.058Z,1007.2
2023-03-02T06:03:56.353Z,1007.2
2023-03-02T06:05:10.657Z,1007.2
2023-03-02T06:06:24.951Z,1007.2
2023-03-02T06:08:53.569Z,1007.2
2023-03-02T06:10:07.867Z,1007.2
2023-03-02T06:12:36.475Z,1007.2
2023-03-02T06:13:50.768Z,1007.2
2023-03-02T06:15:05.077Z,1007.2
2023-03-02T06:17:33.680Z,1007.2
2023-03-02T06:18:47.049Z,1007.2
2023-03-02T06:20:00.401Z,1007.2
2023-03-02T06:21:14.703Z,1007.2
2023-03-02T06:23:43.295Z,1007.2
2023-03-02T06:24:57.600Z,1007.2
2023-03-02T06:26:11.912Z,1007.2
2023-03-02T06:27:26.202Z,1007.2
2023-03-02T06:28:40.479Z,1007.3
2023-03-02T06:29:54.806Z,1007.3
2023-03-02T06:31:09.118Z,1007.3
2023-03-02T06:32:23.417Z,1007.3
2023-03-02T06:34:52.020Z,1007.3
2023-03-02T06:36:05.362Z,1007.3
2023-03-02T06:37:19.661Z,1007.3
2023-03-02T06:39:48.260Z,1007.3
2023-03-02T06:41:02.582Z,1007.3
2023-03-02T06:42:16.880Z,1007.4
2023-03-02T06:43:31.186Z,1007.4
2023-03-02T06:45:59.779Z,1007.4
2023-03-02T06:47:14.075Z,1007.4
2023-03-02T06:48:28.377Z,1007.4
2023-03-02T06:50:56.977Z,1007.4
2023-03-02T06:52:10.343Z,1007.4
2023-03-02T06:53:24.646Z,1007.4
2023-03-02T06:54:38.929Z,1007.4
2023-03-02T06:55:53.235Z,1007.4
2023-03-02T06:57:07.538Z,1007.4
2023-03-02T06:58:21.831Z,1007.4
2023-03-02T06:59:36.147Z,1007.3
2023-03-02T07:00:50.449Z,1007.3
2023-03-02T07:02:04.740Z,1007.3
2023-03-02T07:03:19.051Z,1007.3
2023-03-02T07:04:33.355Z,1007.3
2023-03-02T07:05:47.648Z,1007.2
2023-03-02T07:08:16.265Z,1007.2
2023-03-02T07:10:44.853Z,1007.1
2023-03-02T07:13:12.499Z,1007.1
2023-03-02T07:14:26.819Z,1007.1
2023-03-02T07:15:41.102Z,1007.1
2023-03-02T07:16:55.402Z,1007.1
2023-03-02T07:18:09.719Z,1007.1
2023-03-02T07:19:24.023Z,1007.2
2023-03-02T07:21:52.624Z,1007.2
2023-03-02T07:24:21.211Z,1007.2
2023-03-02T07:25:35.513Z,1007.2
2023-03-02T07:26:49.809Z,1007.2
2023-03-02T07:30:31.769Z,1007.3
2023-03-02T07:31:46.061Z,1007.2
2023-03-02T07:33:00.382Z,1007.2
2023-03-02T07:35:28.964Z,1007.2
2023-03-02T07:36:43.294Z,1007.2
2023-03-02T07:37:57.592Z,1007.1
2023-03-02T07:39:11.893Z,1007.1
2023-03-02T07:41:40.482Z,1007
2023-03-02T07:42:54.792Z,1007
2023-03-02T07:44:09.088Z,1007
2023-03-02T07:45:23.397Z,1007
2023-03-02T07:47:51.985Z,1007
2023-03-02T07:49:05.329Z,1007
2023-03-02T07:50:19.643Z,1007
2023-03-02T07:52:48.246Z,1007
2023-03-02T07:54:02.532Z,1007
2023-03-02T07:55:16.849Z,1007
2023-03-02T07:57:45.447Z,1007
2023-03-02T07:58:59.747Z,1007
2023-03-02T08:00:14.050Z,1007
2023-03-02T08:01:28.342Z,1007.1
2023-03-02T08:03:56.938Z,1007.1
2023-03-02T08:05:11.246Z,1007.1
2023-03-02T08:06:25.541Z,1007.1
2023-03-02T08:08:53.197Z,1007.1
2023-03-02T08:11:21.796Z,1007.1
2023-03-02T08:12:36.087Z,1007.1
2023-03-02T08:15:04.689Z,1007.1
2023-03-02T08:16:18.987Z,1007
2023-03-02T08:17:33.289Z,1007.1
2023-03-02T08:18:47.572Z,1007.1
2023-03-02T08:20:01.877Z,1007
2023-03-02T08:21:16.162Z,1007
2023-03-02T08:22:30.480Z,1007
2023-03-02T08:23:44.774Z,1007
2023-03-02T08:26:13.377Z,1007
2023-03-02T08:28:41.962Z,1007
2023-03-02T08:29:55.325Z,1007
2023-03-02T08:31:09.626Z,1007.1
2023-03-02T08:32:23.922Z,1007.1
2023-03-02T08:33:38.209Z,1007
2023-03-02T08:34:52.515Z,1007
2023-03-02T08:36:06.829Z,1007
2023-03-02T08:38:35.414Z,1007
2023-03-02T08:39:49.712Z,1007
2023-03-02T08:42:18.314Z,1007
2023-03-02T08:43:32.625Z,1007
2023-03-02T08:44:46.928Z,1007
2023-03-02T08:46:01.227Z,1007
2023-03-02T08:48:29.831Z,1007
2023-03-02T08:49:44.114Z,1007
2023-03-02T08:50:58.432Z,1007
2023-03-02T08:53:27.024Z,1006.9
2023-03-02T08:54:41.326Z,1007
2023-03-02T08:55:55.629Z,1007
2023-03-02T08:57:09.926Z,1006.9
2023-03-02T08:59:38.540Z,1006.9
2023-03-02T09:00:52.823Z,1006.9
2023-03-02T09:02:07.131Z,1006.9
2023-03-02T09:05:50.037Z,1006.9
2023-03-02T09:07:04.346Z,1006.9
2023-03-02T09:08:18.634Z,1006.9
2023-03-02T09:10:47.364Z,1007
2023-03-02T09:12:01.669Z,1007
2023-03-02T09:13:15.963Z,1007
2023-03-02T09:15:44.569Z,1007
2023-03-02T09:18:13.167Z,1007
2023-03-02T09:19:27.474Z,1007
2023-03-02T09:21:56.057Z,1007
2023-03-02T09:23:10.363Z,1007
2023-03-02T09:24:24.667Z,1007.1
2023-03-02T09:26:53.266Z,1007.1
2023-03-02T09:28:07.570Z,1007.1
2023-03-02T09:29:21.870Z,1007
2023-03-02T09:33:04.764Z,1007
2023-03-02T09:34:19.082Z,1007.1
2023-03-02T09:35:33.375Z,1007
2023-03-02T09:38:01.984Z,1007
2023-03-02T09:39:16.277Z,1007
2023-03-02T09:40:30.580Z,1007
2023-03-02T09:41:44.871Z,1007.1
2023-03-02T09:44:13.476Z,1007.1
2023-03-02T09:45:27.773Z,1007.1
2023-03-02T09:47:56.386Z,1007.1
2023-03-02T09:49:10.685Z,1007.2
2023-03-02T09:51:39.277Z,1007.1
2023-03-02T09:52:53.593Z,1007.2
2023-03-02T09:55:22.303Z,1007.2
2023-03-02T09:57:51.130Z,1007.2
2023-03-02T09:59:05.551Z,1007.2
2023-03-02T10:00:19.077Z,1007.2
2023-03-02T10:01:33.491Z,1007.2
2023-03-02T10:04:02.320Z,1007.2
2023-03-02T10:05:16.729Z,1007.2
2023-03-02T10:06:31.156Z,1007.2
2023-03-02T10:10:14.391Z,1007.2
2023-03-02T10:11:28.814Z,1007.2
2023-03-02T10:12:43.209Z,1007.1
2023-03-02T10:13:57.638Z,1007.1
2023-03-02T10:16:26.456Z,1007.1
2023-03-02T10:17:39.986Z,1007.1
2023-03-02T10:18:54.400Z,1007.1
2023-03-02T10:20:08.816Z,1007.1
2023-03-02T10:21:23.230Z,1007.1
2023-03-02T10:23:52.055Z,1007
2023-03-02T10:25:06.483Z,1007
2023-03-02T10:26:20.894Z,1007
2023-03-02T10:27:35.306Z,1007.1
2023-03-02T10:28:49.715Z,1007
2023-03-02T10:30:04.143Z,1007
2023-03-02T10:31:18.556Z,1007
2023-03-02T10:32:32.970Z,1007
2023-03-02T10:33:47.365Z,1007
2023-03-02T10:35:00.911Z,1007
2023-03-02T10:36:15.320Z,1007
2023-03-02T10:38:44.154Z,1007
2023-03-02T10:39:58.569Z,1007
2023-03-02T10:41:12.973Z,1007
2023-03-02T10:43:41.810Z,1006.9
2023-03-02T10:44:56.219Z,1007
2023-03-02T10:46:10.631Z,1006.9
2023-03-02T10:48:39.455Z,1006.9
2023-03-02T10:49:53.881Z,1006.9
2023-03-02T10:53:36.238Z,1006.9
2023-03-02T10:54:50.653Z,1006.8
2023-03-02T10:56:05.060Z,1006.8
2023-03-02T10:58:33.894Z,1006.8
2023-03-02T10:59:48.301Z,1006.8
2023-03-02T11:01:02.726Z,1006.7
2023-03-02T11:03:31.543Z,1006.7
2023-03-02T11:04:45.954Z,1006.7
2023-03-02T11:06:00.378Z,1006.7
2023-03-02T11:08:28.329Z,1006.6
2023-03-02T11:09:42.742Z,1006.7
2023-03-02T11:10:57.158Z,1006.6
2023-03-02T11:12:11.564Z,1006.6
2023-03-02T11:13:25.972Z,1006.6
2023-03-02T11:14:40.396Z,1006.6
2023-03-02T11:15:54.806Z,1006.5
2023-03-02T11:18:23.639Z,1006.5
2023-03-02T11:19:38.047Z,1006.5
2023-03-02T11:20:52.471Z,1006.5
2023-03-02T11:23:21.297Z,1006.5
2023-03-02T11:24:35.705Z,1006.5
2023-03-02T11:25:50.118Z,1006.4
2023-03-02T11:27:04.525Z,1006.4
2023-03-02T11:28:18.061Z,1006.4
2023-03-02T11:29:32.483Z,1006.4
2023-03-02T11:30:46.904Z,1006.4
2023-03-02T11:33:15.714Z,1006.3
2023-03-02T11:34:30.143Z,1006.4
2023-03-02T11:35:44.542Z,1006.3
2023-03-02T11:38:13.374Z,1006.3
2023-03-02T11:39:27.787Z,1006.3
2023-03-02T11:40:42.212Z,1006.3
2023-03-02T11:43:11.042Z,1006.3
2023-03-02T11:44:25.454Z,1006.3
2023-03-02T11:48:08.692Z,1006.2
2023-03-02T11:49:23.102Z,1006.2
2023-03-02T11:53:06.342Z,1006.2
2023-03-02T11:54:20.763Z,1006.1
2023-03-02T11:55:34.296Z,1006.1
2023-03-02T11:58:03.113Z,1006.1
2023-03-02T11:59:17.539Z,1006.1
2023-03-02T12:03:00.780Z,1006.2
2023-03-02T12:04:15.188Z,1006.1
2023-03-02T12:05:29.610Z,1006.1
2023-03-02T12:07:58.425Z,1006
2023-03-02T12:09:12.845Z,1006.1
2023-03-02T12:10:27.255Z,1006
2023-03-02T12:11:41.672Z,1006
2023-03-02T12:12:56.093Z,1006
2023-03-02T12:14:10.503Z,1006
2023-03-02T12:15:24.904Z,1006
2023-03-02T12:17:53.750Z,1006
2023-03-02T12:19:08.147Z,1006
2023-03-02T12:20:22.559Z,1006
2023-03-02T12:22:50.520Z,1005.9
2023-03-02T12:24:04.925Z,1005.9
2023-03-02T12:25:19.344Z,1005.9
2023-03-02T12:26:33.766Z,1005.9
2023-03-02T12:27:48.178Z,1005.9
2023-03-02T12:29:02.584Z,1005.8
2023-03-02T12:30:17.008Z,1005.8
2023-03-02T12:32:45.826Z,1005.8
2023-03-02T12:34:00.238Z,1005.7
2023-03-02T12:35:14.651Z,1005.7
2023-03-02T12:37:43.484Z,1005.7
2023-03-02T12:38:57.024Z,1005.7
2023-03-02T12:40:11.441Z,1005.6
2023-03-02T12:42:40.254Z,1005.6
2023-03-02T12:43:54.666Z,1005.7
2023-03-02T12:45:09.088Z,1005.6
2023-03-02T12:46:23.494Z,1005.7
2023-03-02T12:47:37.906Z,1005.6
2023-03-02T12:50:06.741Z,1005.5
2023-03-02T12:51:21.155Z,1005.5
2023-03-02T12:52:35.580Z,1005.5
2023-03-02T12:53:49.993Z,1005.5
2023-03-02T12:55:04.396Z,1005.5
2023-03-02T12:56:18.938Z,1005.6
2023-03-02T12:57:33.340Z,1005.5
2023-03-02T12:58:47.755Z,1005.6
2023-03-02T13:00:02.186Z,1005.5
2023-03-02T13:01:16.580Z,1005.5
2023-03-02T13:02:31.013Z,1005.5
2023-03-02T13:03:45.414Z,1005.5
2023-03-02T13:04:59.829Z,1005.4
2023-03-02T13:06:14.236Z,1005.4
2023-03-02T13:07:28.670Z,1005.3
2023-03-02T13:08:43.071Z,1005.4
2023-03-02T13:09:56.635Z,1005.3
2023-03-02T13:11:10.174Z,1005.3
2023-03-02T13:12:24.570Z,1005.3
2023-03-02T13:13:38.985Z,1005.2
2023-03-02T13:14:53.412Z,1005.3
2023-03-02T13:17:22.229Z,1005.3
2023-03-02T13:18:36.653Z,1005.2
2023-03-02T13:19:51.052Z,1005.2
2023-03-02T13:22:19.891Z,1005.2
2023-03-02T13:23:34.305Z,1005.2
2023-03-02T13:24:48.709Z,1005.2
2023-03-02T13:27:17.552Z,1005.2
2023-03-02T13:28:31.966Z,1005.1
2023-03-02T13:29:45.519Z,1005.2
2023-03-02T13:30:59.924Z,1005.2
2023-03-02T13:32:14.335Z,1005.1
2023-03-02T13:33:28.759Z,1005.1
2023-03-02T13:34:43.179Z,1005.1
2023-03-02T13:37:11.114Z,1005.1
2023-03-02T13:39:39.944Z,1005
2023-03-02T13:42:08.767Z,1005.1
2023-03-02T13:43:23.179Z,1005.1
2023-03-02T13:44:37.600Z,1005.1
2023-03-02T13:47:06.422Z,1005
2023-03-02T13:48:20.850Z,1005.1
2023-03-02T13:49:35.260Z,1005.1
2023-03-02T13:52:04.085Z,1005
2023-03-02T13:53:17.624Z,1005
2023-03-02T13:54:32.025Z,1005
2023-03-02T13:55:46.455Z,1004.9
2023-03-02T13:57:00.854Z,1004.9
2023-03-02T13:58:15.268Z,1004.9
2023-03-02T13:59:29.681Z,1004.9
2023-03-02T14:01:58.510Z,1004.9
2023-03-02T14:03:12.932Z,1004.9
2023-03-02T14:04:27.346Z,1004.8
2023-03-02T14:06:56.177Z,1004.8
2023-03-02T14:09:23.916Z,1004.8
2023-03-02T14:10:38.205Z,1004.8
2023-03-02T14:11:52.520Z,1004.8
2023-03-02T14:14:21.127Z,1004.8
2023-03-02T14:16:48.774Z,1004.8
2023-03-02T14:19:17.387Z,1004.8
2023-03-02T14:20:31.672Z,1004.8
2023-03-02T14:21:45.974Z,1004.8
2023-03-02T14:22:59.334Z,1004.7
2023-03-02T14:24:13.631Z,1004.6
2023-03-02T14:25:27.940Z,1004.6
2023-03-02T14:26:42.244Z,1004.6
2023-03-02T14:27:56.538Z,1004.6
2023-03-02T14:29:10.850Z,1004.5
2023-03-02T14:30:25.137Z,1004.6
2023-03-02T14:32:53.739Z,1004.5
2023-03-02T14:34:08.044Z,1004.5
2023-03-02T14:35:22.347Z,1004.5
2023-03-02T14:39:05.254Z,1004.5
2023-03-02T14:40:19.543Z,1004.5
2023-03-02T14:41:32.898Z,1004.4
2023-03-02T14:44:01.485Z,1004.5
2023-03-02T14:45:15.797Z,1004.4
2023-03-02T14:46:30.099Z,1004.4
2023-03-02T14:47:44.390Z,1004.4
2023-03-02T14:50:13.002Z,1004.4
2023-03-02T14:51:27.300Z,1004.3
2023-03-02T14:52:41.599Z,1004.3
2023-03-02T14:56:24.502Z,1004.3
2023-03-02T14:57:38.796Z,1004.3
2023-03-02T14:58:53.094Z,1004.2
2023-03-02T15:01:20.760Z,1004.2
2023-03-02T15:02:35.045Z,1004.2
2023-03-02T15:03:49.345Z,1004.2
2023-03-02T15:05:03.653Z,1004.2
2023-03-02T15:06:17.944Z,1004.2
2023-03-02T15:07:32.260Z,1004.2
2023-03-02T15:10:00.855Z,1004.2
2023-03-02T15:12:29.466Z,1004.3
2023-03-02T15:13:43.767Z,1004.4
2023-03-02T15:17:26.667Z,1004.3
2023-03-02T15:18:40.001Z,1004.3
2023-03-02T15:19:54.301Z,1004.2
2023-03-02T15:21:08.611Z,1004.2
2023-03-02T15:23:37.207Z,1004.2
2023-03-02T15:24:51.506Z,1004.2
2023-03-02T15:26:05.821Z,1004.2
2023-03-02T15:28:34.406Z,1004.2
2023-03-02T15:29:48.705Z,1004.2
2023-03-02T15:31:03.018Z,1004.2
2023-03-02T15:32:17.316Z,1004.2
2023-03-02T15:33:31.615Z,1004.2
2023-03-02T15:34:45.911Z,1004.2
2023-03-02T15:36:00.228Z,1004.2
2023-03-02T15:40:56.469Z,1004.2
2023-03-02T15:42:10.770Z,1004.2
2023-03-02T15:43:25.065Z,1004.2
2023-03-02T15:45:53.682Z,1004.2
2023-03-02T15:47:07.976Z,1004.2
2023-03-02T15:48:22.273Z,1004.2
2023-03-02T15:52:05.177Z,1004.2
2023-03-02T15:54:33.782Z,1004.2
2023-03-02T15:55:47.111Z,1004.2
2023-03-02T15:57:01.422Z,1004.2
2023-03-02T15:58:15.727Z,1004.2
2023-03-02T16:00:44.325Z,1004.2
2023-03-02T16:01:58.631Z,1004.2
2023-03-02T16:03:12.923Z,1004.2
2023-03-02T16:04:27.232Z,1004.2
2023-03-02T16:05:41.515Z,1004.2
2023-03-02T16:06:55.816Z,1004.2
2023-03-02T16:08:10.134Z,1004.2
2023-03-02T16:09:24.431Z,1004.2
2023-03-02T16:10:38.737Z,1004.2
2023-03-02T16:13:07.321Z,1004.2
2023-03-02T16:14:20.671Z,1004.2
2023-03-02T16:19:17.890Z,1004.2
2023-03-02T16:20:32.169Z,1004.2
2023-03-02T16:21:46.471Z,1004.3
2023-03-02T16:25:29.389Z,1004.2
2023-03-02T16:26:43.686Z,1004.2
2023-03-02T16:27:57.990Z,1004.2
2023-03-02T16:31:40.882Z,1004.2
2023-03-02T16:35:22.836Z,1004.3
2023-03-02T16:36:37.134Z,1004.3
2023-03-02T16:37:51.434Z,1004.3
2023-03-02T16:39:05.732Z,1004.3
2023-03-02T16:40:20.034Z,1004.3
2023-03-02T16:41:34.328Z,1004.3
2023-03-02T16:42:48.633Z,1004.3
2023-03-02T16:44:02.932Z,1004.3
2023-03-02T16:46:31.547Z,1004.3
2023-03-02T16:47:45.834Z,1004.3
2023-03-02T16:49:00.146Z,1004.3
2023-03-02T16:50:14.442Z,1004.3
2023-03-02T16:52:43.038Z,1004.3
2023-03-02T16:53:57.346Z,1004.3
2023-03-02T16:55:11.638Z,1004.3
2023-03-02T16:57:40.253Z,1004.4
2023-03-02T16:58:54.536Z,1004.4
2023-03-02T17:00:08.840Z,1004.4
2023-03-02T17:02:37.451Z,1004.4
2023-03-02T17:03:51.741Z,1004.4
2023-03-02T17:05:06.055Z,1004.5
2023-03-02T17:06:20.340Z,1004.5
2023-03-02T17:07:34.645Z,1004.5
2023-03-02T17:08:48.956Z,1004.5
2023-03-02T17:10:03.256Z,1004.5
2023-03-02T17:11:17.553Z,1004.5
2023-03-02T17:12:31.853Z,1004.5
2023-03-02T17:13:46.148Z,1004.5
2023-03-02T17:15:00.457Z,1004.5
2023-03-02T17:16:14.761Z,1004.5
2023-03-02T17:18:43.463Z,1004.5
2023-03-02T17:19:57.001Z,1004.6
2023-03-02T17:21:11.409Z,1004.6
2023-03-02T17:23:40.308Z,1004.6
2023-03-02T17:24:54.727Z,1004.6
2023-03-02T17:26:09.202Z,1004.6
2023-03-02T17:29:52.599Z,1004.6
2023-03-02T17:31:07.072Z,1004.6
2023-03-02T17:32:21.535Z,1004.6
2023-03-02T17:33:35.997Z,1004.6
2023-03-02T17:34:50.474Z,1004.6
2023-03-02T17:36:04.931Z,1004.6
2023-03-02T17:38:33.868Z,1004.7
2023-03-02T17:39:47.453Z,1004.7
2023-03-02T17:41:01.925Z,1004.7
2023-03-02T17:43:30.863Z,1004.7
2023-03-02T17:44:45.324Z,1004.8
2023-03-02T17:45:59.807Z,1004.8
2023-03-02T17:47:14.271Z,1004.8
2023-03-02T17:48:28.743Z,1004.8
2023-03-02T17:49:43.199Z,1004.8
2023-03-02T17:52:12.135Z,1004.8
2023-03-02T17:53:26.617Z,1004.9
2023-03-02T17:54:41.070Z,1004.9
2023-03-02T17:55:54.678Z,1004.9
2023-03-02T17:58:23.625Z,1004.9
2023-03-02T17:59:38.098Z,1004.9
2023-03-02T18:00:52.546Z,1004.9
2023-03-02T18:03:20.622Z,1004.9
2023-03-02T18:04:35.075Z,1005
2023-03-02T18:05:49.544Z,1005
2023-03-02T18:08:18.483Z,1005
2023-03-02T18:10:47.420Z,1005.1
2023-03-02T18:13:16.349Z,1005.1
2023-03-02T18:14:30.833Z,1005.1
2023-03-02T18:15:45.300Z,1005.1
2023-03-02T18:18:14.223Z,1005.1
2023-03-02T18:19:27.813Z,1005.1
2023-03-02T18:20:42.279Z,1005.1
2023-03-02T18:21:56.757Z,1005.2
2023-03-02T18:23:11.213Z,1005.2
2023-03-02T18:24:25.679Z,1005.2
2023-03-02T18:25:40.156Z,1005.2
2023-03-02T18:28:09.081Z,1005.3
2023-03-02T18:29:23.568Z,1005.3
2023-03-02T18:31:52.490Z,1005.3
2023-03-02T18:33:06.074Z,1005.3
2023-03-02T18:34:20.545Z,1005.3
2023-03-02T18:35:35.025Z,1005.3
2023-03-02T18:38:03.957Z,1005.4
2023-03-02T18:39:18.433Z,1005.4
2023-03-02T18:40:32.887Z,1005.4
2023-03-02T18:43:01.837Z,1005.4
2023-03-02T18:44:16.306Z,1005.4
2023-03-02T18:46:45.225Z,1005.5
2023-03-02T18:47:59.696Z,1005.5
2023-03-02T18:49:13.299Z,1005.5
2023-03-02T18:50:27.769Z,1005.5
2023-03-02T18:52:56.689Z,1005.5
2023-03-02T18:54:11.170Z,1005.5
2023-03-02T18:55:25.636Z,1005.5
2023-03-02T18:57:54.571Z,1005.5
2023-03-02T18:59:09.024Z,1005.5
2023-03-02T19:00:23.501Z,1005.5
2023-03-02T19:02:52.433Z,1005.5
2023-03-02T19:05:21.379Z,1005.5
2023-03-02T19:06:35.838Z,1005.5
2023-03-02T19:07:50.306Z,1005.5
2023-03-02T19:09:04.766Z,1005.5
2023-03-02T19:10:18.363Z,1005.5
2023-03-02T19:11:32.844Z,1005.5
2023-03-02T19:14:01.773Z,1005.5
2023-03-02T19:15:16.236Z,1005.6
2023-03-02T19:17:45.185Z,1005.6
2023-03-02T19:18:59.658Z,1005.6
2023-03-02T19:20:14.126Z,1005.6
2023-03-02T19:22:43.057Z,1005.6
2023-03-02T19:23:57.530Z,1005.6
2023-03-02T19:25:11.996Z,1005.6
2023-03-02T19:26:26.457Z,1005.6
2023-03-02T19:27:40.917Z,1005.6
2023-03-02T19:30:09.864Z,1005.7
2023-03-02T19:31:23.449Z,1005.7
2023-03-02T19:32:37.929Z,1005.7
2023-03-02T19:33:52.380Z,1005.7
2023-03-02T19:35:06.859Z,1005.7
2023-03-02T19:37:35.792Z,1005.7
2023-03-02T19:38:50.247Z,1005.7